Time;durP1;ratioP1;P1;durP2;ratioP2;P2;SDS_P1;SDS_P2;PMS_P1;PMS_P2;Temp;Humidity;BMP_temperature;BMP_pressure;BME280_temperature;BME280_humidity;BME280_pressure;Samples;Min_cycle;Max_cycle;Signal;HPM_P1;HPM_P2
2022/03/16 00:02:25;;;;;;;27.15;14.80;;;8.60;99.90;;;;;;5031278;28;20033;-64
2022/03/16 00:04:53;;;;;;;28.75;15.50;;;8.60;99.90;;;;;;5018299;28;20022;-63
2022/03/16 00:07:20;;;;;;;29.33;15.55;;;8.50;99.90;;;;;;5022262;28;20131;-62
2022/03/16 00:09:46;;;;;;;29.15;16.08;;;8.50;99.90;;;;;;5025176;28;20073;-62
2022/03/16 00:12:12;;;;;;;29.17;16.52;;;8.50;99.90;;;;;;5031416;28;20055;-62
2022/03/16 00:14:38;;;;;;;31.90;16.08;;;8.50;99.90;;;;;;5025725;28;20096;-64
2022/03/16 00:17:05;;;;;;;32.28;17.52;;;8.50;99.90;;;;;;5028754;28;20065;-63
2022/03/16 00:19:31;;;;;;;33.95;17.08;;;8.50;99.90;;;;;;5034738;28;20527;-63
2022/03/16 00:21:58;;;;;;;32.80;16.83;;;8.40;99.90;;;;;;5019868;28;20097;-62
2022/03/16 00:24:23;;;;;;;31.20;17.13;;;8.40;99.90;;;;;;5025985;28;20049;-62
2022/03/16 00:26:49;;;;;;;32.70;18.27;;;8.40;99.90;;;;;;5032897;28;20087;-62
2022/03/16 00:29:15;;;;;;;28.95;16.88;;;8.30;99.90;;;;;;5020226;28;20044;-62
2022/03/16 00:31:40;;;;;;;29.67;16.73;;;8.30;99.90;;;;;;5027644;28;20037;-62
2022/03/16 00:34:06;;;;;;;31.17;17.48;;;8.30;99.90;;;;;;5020852;28;20049;-63
2022/03/16 00:36:32;;;;;;;32.33;17.85;;;8.20;99.90;;;;;;5015929;28;20029;-63
2022/03/16 00:38:57;;;;;;;32.17;18.08;;;8.20;99.90;;;;;;5015164;28;20033;-63
2022/03/16 00:41:23;;;;;;;32.97;17.40;;;8.20;99.90;;;;;;5014813;28;20038;-63
2022/03/16 00:43:48;;;;;;;35.95;18.75;;;8.20;99.90;;;;;;5020927;28;20084;-62
2022/03/16 00:46:14;;;;;;;31.63;17.90;;;8.10;99.90;;;;;;5030907;28;20033;-62
2022/03/16 00:48:40;;;;;;;34.33;18.67;;;8.10;99.90;;;;;;5021530;28;20397;-62
2022/03/16 00:51:05;;;;;;;34.15;18.98;;;8.10;99.90;;;;;;5020710;28;20105;-61
2022/03/16 00:53:33;;;;;;;31.95;17.30;;;8.10;99.90;;;;;;5025576;28;20025;-62
2022/03/16 00:55:59;;;;;;;31.92;18.02;;;8.00;99.90;;;;;;5013193;28;20423;-62
2022/03/16 00:58:25;;;;;;;40.95;19.58;;;8.00;99.90;;;;;;5022558;28;20053;-62
2022/03/16 01:00:50;;;;;;;34.17;18.30;;;8.00;99.90;;;;;;5021980;28;20037;-62
2022/03/16 01:03:16;;;;;;;36.72;18.42;;;8.00;99.90;;;;;;5021984;28;20104;-62
2022/03/16 01:05:42;;;;;;;39.67;19.90;;;8.00;99.90;;;;;;5024175;28;20417;-62
2022/03/16 01:08:08;;;;;;;41.58;20.40;;;7.90;99.90;;;;;;5029891;28;20462;-62
2022/03/16 01:10:34;;;;;;;37.42;18.98;;;7.90;99.90;;;;;;5031320;28;20045;-62
2022/03/16 01:12:59;;;;;;;38.38;20.75;;;7.90;99.90;;;;;;5023672;28;20395;-63
2022/03/16 01:15:25;;;;;;;38.03;18.98;;;7.90;99.90;;;;;;5023675;28;20045;-62
2022/03/16 01:17:51;;;;;;;38.85;20.08;;;7.90;99.90;;;;;;5027257;28;20382;-62
2022/03/16 01:20:18;;;;;;;40.88;21.67;;;7.90;99.90;;;;;;5030831;28;20454;-62
2022/03/16 01:22:44;;;;;;;39.33;19.55;;;7.90;99.90;;;;;;5028993;28;20032;-62
2022/03/16 01:25:10;;;;;;;40.25;20.10;;;7.90;99.90;;;;;;5025842;28;20041;-62
2022/03/16 01:27:35;;;;;;;39.67;20.33;;;7.90;99.90;;;;;;5026015;28;20033;-62
2022/03/16 01:30:01;;;;;;;39.08;20.35;;;7.80;99.90;;;;;;5019397;28;20049;-62
2022/03/16 01:32:27;;;;;;;39.80;19.55;;;7.80;99.90;;;;;;5021235;28;20029;-62
2022/03/16 01:34:53;;;;;;;38.53;20.55;;;7.70;99.90;;;;;;5019310;28;20049;-63
2022/03/16 01:37:18;;;;;;;42.10;21.33;;;7.70;99.90;;;;;;5012900;28;20037;-63
2022/03/16 01:39:44;;;;;;;41.63;20.83;;;7.70;99.90;;;;;;5015162;28;20033;-63
2022/03/16 01:42:09;;;;;;;35.95;19.85;;;7.70;99.90;;;;;;5027140;28;20397;-62
2022/03/16 01:44:48;;;;;;;42.10;21.85;;;7.70;99.90;;;;;;5017690;28;20025;-62
2022/03/16 01:47:19;;;;;;;42.08;21.48;;;7.70;99.90;;;;;;5016984;28;20098;-62
2022/03/16 01:49:46;;;;;;;47.88;21.92;;;7.60;99.90;;;;;;5021512;28;20078;-62
2022/03/16 01:52:15;;;;;;;42.33;21.85;;;7.60;99.90;;;;;;5014200;28;20450;-64
2022/03/16 01:54:41;;;;;;;42.83;20.95;;;7.60;99.90;;;;;;5019468;28;20470;-63
2022/03/16 01:57:09;;;;;;;37.35;20.30;;;7.60;99.90;;;;;;5026831;28;20025;-63
2022/03/16 01:59:36;;;;;;;38.47;20.20;;;7.50;99.90;;;;;;5026494;28;20468;-63
2022/03/16 02:02:02;;;;;;;45.92;20.63;;;7.50;99.90;;;;;;5029992;28;20416;-63
2022/03/16 02:04:29;;;;;;;43.22;22.00;;;7.50;99.90;;;;;;5014157;28;20028;-63
2022/03/16 02:06:54;;;;;;;47.85;21.98;;;7.50;99.90;;;;;;5022345;28;20375;-63
2022/03/16 02:09:21;;;;;;;43.50;22.05;;;7.50;99.90;;;;;;5020596;28;20049;-62
2022/03/16 02:11:47;;;;;;;43.35;21.13;;;7.50;99.90;;;;;;5020441;28;20036;-62
2022/03/16 02:14:13;;;;;;;46.08;23.20;;;7.50;99.90;;;;;;5016614;28;20042;-62
2022/03/16 02:16:39;;;;;;;42.42;23.58;;;7.40;99.90;;;;;;5030052;28;20072;-63
2022/03/16 02:19:04;;;;;;;40.03;20.23;;;7.40;99.90;;;;;;5022580;28;20030;-62
2022/03/16 02:21:34;;;;;;;45.13;22.08;;;7.40;99.90;;;;;;5012323;28;20037;-63
2022/03/16 02:24:01;;;;;;;47.47;22.80;;;7.40;99.90;;;;;;5017840;28;20042;-62
2022/03/16 02:26:27;;;;;;;44.15;22.65;;;7.40;99.90;;;;;;5029589;28;20056;-63
2022/03/16 02:28:53;;;;;;;43.50;23.42;;;7.40;99.90;;;;;;5017055;28;20173;-62
2022/03/16 02:31:20;;;;;;;47.70;23.90;;;7.30;99.90;;;;;;5016046;28;20033;-63
2022/03/16 02:33:45;;;;;;;44.17;22.30;;;7.40;99.90;;;;;;5024401;28;20029;-62
2022/03/16 02:36:11;;;;;;;41.40;22.00;;;7.30;99.90;;;;;;5024787;28;20103;-63
2022/03/16 02:38:37;;;;;;;46.15;23.80;;;7.30;99.90;;;;;;5024359;28;20036;-63
2022/03/16 02:41:03;;;;;;;42.55;22.85;;;7.30;99.90;;;;;;5027090;28;20021;-62
2022/03/16 02:43:29;;;;;;;43.75;23.08;;;7.30;99.90;;;;;;5021361;28;20045;-63
2022/03/16 02:45:55;;;;;;;44.10;22.27;;;7.30;99.90;;;;;;5026767;28;20112;-62
2022/03/16 02:48:21;;;;;;;48.03;23.85;;;7.30;99.90;;;;;;5026184;28;20065;-62
2022/03/16 02:50:47;;;;;;;48.15;24.00;;;7.30;99.90;;;;;;5025905;28;20444;-63
2022/03/16 02:53:12;;;;;;;53.58;25.20;;;7.20;99.90;;;;;;5015684;28;20335;-63
2022/03/16 02:55:38;;;;;;;46.08;24.90;;;7.20;99.90;;;;;;5011522;28;20087;-63
2022/03/16 02:58:04;;;;;;;51.83;24.75;;;7.30;99.90;;;;;;5026510;28;20066;-63
2022/03/16 03:00:30;;;;;;;48.47;23.83;;;7.20;99.90;;;;;;5011852;28;20470;-63
2022/03/16 03:02:56;;;;;;;46.97;25.58;;;7.20;99.90;;;;;;5020079;28;20026;-68
2022/03/16 03:05:22;;;;;;;50.13;26.63;;;7.20;99.90;;;;;;5027639;28;20037;-64
2022/03/16 03:07:47;;;;;;;47.45;24.90;;;7.20;99.90;;;;;;5023272;28;20042;-66
2022/03/16 03:10:13;;;;;;;50.13;24.92;;;7.20;99.90;;;;;;5013036;28;20413;-65
2022/03/16 03:12:39;;;;;;;50.22;24.42;;;7.20;99.90;;;;;;5018816;28;20109;-65
2022/03/16 03:15:05;;;;;;;50.80;25.05;;;7.20;99.90;;;;;;5023269;28;20387;-63
2022/03/16 03:17:31;;;;;;;48.63;23.35;;;7.20;99.90;;;;;;5023195;28;20121;-66
2022/03/16 03:19:57;;;;;;;48.08;24.27;;;7.20;99.90;;;;;;5031324;28;20036;-65
2022/03/16 03:22:27;;;;;;;49.20;24.20;;;7.20;99.90;;;;;;5016023;28;20101;-66
2022/03/16 03:24:54;;;;;;;46.05;22.73;;;7.20;99.90;;;;;;5019079;28;20077;-64
2022/03/16 03:27:20;;;;;;;43.85;22.10;;;7.30;99.90;;;;;;5018446;28;20502;-64
2022/03/16 03:29:46;;;;;;;44.22;22.83;;;7.30;99.90;;;;;;5011135;28;20026;-65
2022/03/16 03:32:11;;;;;;;42.28;21.83;;;7.30;99.90;;;;;;5029137;28;20116;-64
2022/03/16 03:34:37;;;;;;;44.47;21.42;;;7.30;99.90;;;;;;5016571;28;20047;-65
2022/03/16 03:37:03;;;;;;;40.10;20.23;;;7.30;99.90;;;;;;5027913;28;20032;-64
2022/03/16 03:39:28;;;;;;;41.15;19.60;;;7.30;99.90;;;;;;5016467;28;20022;-64
2022/03/16 03:41:54;;;;;;;41.13;20.40;;;7.30;99.90;;;;;;5019083;28;20084;-64
2022/03/16 03:44:19;;;;;;;37.05;18.08;;;7.30;99.90;;;;;;5020155;28;20025;-64
2022/03/16 03:46:45;;;;;;;36.80;17.95;;;7.30;99.90;;;;;;5027567;28;20029;-66
2022/03/16 03:49:10;;;;;;;40.50;17.88;;;7.30;99.90;;;;;;5025241;28;20087;-66
2022/03/16 03:51:36;;;;;;;32.88;16.70;;;7.40;99.90;;;;;;5029377;28;20049;-65
2022/03/16 03:54:02;;;;;;;35.92;17.58;;;7.40;99.90;;;;;;5023554;28;20026;-66
2022/03/16 03:56:27;;;;;;;35.53;16.40;;;7.40;99.90;;;;;;5024441;28;20022;-67
2022/03/16 03:58:53;;;;;;;33.90;16.67;;;7.40;99.90;;;;;;5029529;28;20098;-64
2022/03/16 04:01:18;;;;;;;32.47;16.15;;;7.40;99.90;;;;;;5026120;28;20030;-65
2022/03/16 04:03:44;;;;;;;30.60;15.10;;;7.40;99.90;;;;;;5014328;28;20053;-64
2022/03/16 04:06:11;;;;;;;34.95;17.50;;;7.30;99.90;;;;;;5023326;28;20057;-64
2022/03/16 04:08:36;;;;;;;28.67;15.18;;;7.40;99.90;;;;;;5016669;28;20036;-63
2022/03/16 04:11:02;;;;;;;29.92;15.50;;;7.40;99.90;;;;;;5014889;28;20382;-68
2022/03/16 04:13:28;;;;;;;33.15;16.08;;;7.30;99.90;;;;;;5027060;28;20060;-62
2022/03/16 04:15:53;;;;;;;35.60;17.55;;;7.40;99.90;;;;;;5033137;28;20034;-64
2022/03/16 04:18:19;;;;;;;32.25;15.25;;;7.30;99.90;;;;;;5017581;28;20459;-66
2022/03/16 04:20:44;;;;;;;30.80;15.88;;;7.30;99.90;;;;;;5026004;28;20025;-64
2022/03/16 04:23:10;;;;;;;31.80;16.15;;;7.30;99.90;;;;;;5014385;28;20033;-66
2022/03/16 04:25:36;;;;;;;31.98;16.33;;;7.30;99.90;;;;;;5015347;28;20026;-67
2022/03/16 04:28:02;;;;;;;36.35;17.13;;;7.30;99.90;;;;;;5015298;28;20048;-68
2022/03/16 04:30:27;;;;;;;31.77;15.23;;;7.30;99.90;;;;;;5015626;28;20080;-65
2022/03/16 04:32:53;;;;;;;30.35;15.10;;;7.40;99.90;;;;;;5014076;28;20248;-66
2022/03/16 04:35:20;;;;;;;32.65;15.52;;;7.30;99.90;;;;;;5027572;28;20027;-65
2022/03/16 04:37:47;;;;;;;35.55;16.13;;;7.30;99.90;;;;;;5014751;28;20049;-65
2022/03/16 04:40:13;;;;;;;34.30;15.82;;;7.30;99.90;;;;;;5014106;28;20064;-65
2022/03/16 04:42:40;;;;;;;33.58;15.88;;;7.30;99.90;;;;;;5015415;28;20042;-69
2022/03/16 04:45:06;;;;;;;32.58;16.70;;;7.30;99.90;;;;;;5004123;28;20034;-69
2022/03/16 04:47:31;;;;;;;30.27;14.32;;;7.30;99.90;;;;;;5010485;28;20026;-66
2022/03/16 04:49:57;;;;;;;32.20;15.98;;;7.30;99.90;;;;;;5014803;28;20041;-66
2022/03/16 04:52:22;;;;;;;30.30;14.52;;;7.30;99.90;;;;;;5013813;28;20038;-65
2022/03/16 04:54:48;;;;;;;32.40;14.73;;;7.30;99.90;;;;;;5014269;28;20026;-65
2022/03/16 04:57:14;;;;;;;32.88;16.00;;;7.30;99.90;;;;;;5018211;28;20034;-64
2022/03/16 04:59:39;;;;;;;30.27;14.35;;;7.40;99.90;;;;;;5014621;28;20075;-64
2022/03/16 05:02:05;;;;;;;31.20;14.68;;;7.30;99.90;;;;;;5014252;28;20378;-64
2022/03/16 05:04:30;;;;;;;29.48;14.07;;;7.30;99.90;;;;;;5014041;28;20041;-66
2022/03/16 05:06:57;;;;;;;32.50;15.20;;;7.40;99.90;;;;;;5014435;28;20045;-66
2022/03/16 05:09:22;;;;;;;30.65;13.55;;;7.30;99.90;;;;;;5013666;28;20421;-67
2022/03/16 05:11:48;;;;;;;26.20;12.65;;;7.40;99.90;;;;;;5014688;28;20038;-65
2022/03/16 05:14:13;;;;;;;27.00;13.48;;;7.40;99.90;;;;;;5013655;28;20066;-64
2022/03/16 05:16:39;;;;;;;26.80;12.93;;;7.40;99.90;;;;;;5013838;28;20034;-65
2022/03/16 05:19:05;;;;;;;26.67;12.50;;;7.40;99.90;;;;;;5014832;28;20072;-69
2022/03/16 05:21:30;;;;;;;29.23;13.35;;;7.40;99.90;;;;;;5012011;28;20033;-66
2022/03/16 05:23:56;;;;;;;25.40;12.55;;;7.40;99.90;;;;;;5013633;28;20080;-66
2022/03/16 05:26:22;;;;;;;23.13;12.23;;;7.40;99.90;;;;;;5013948;28;20034;-63
2022/03/16 05:28:47;;;;;;;28.02;12.32;;;7.40;99.90;;;;;;5014460;28;20034;-68
2022/03/16 05:31:13;;;;;;;27.52;13.80;;;7.40;99.90;;;;;;5012997;28;20109;-65
2022/03/16 05:33:39;;;;;;;25.77;12.75;;;7.40;99.90;;;;;;5013732;28;20101;-65
2022/03/16 05:36:04;;;;;;;26.67;11.82;;;7.40;99.90;;;;;;5015711;28;20116;-67
2022/03/16 05:38:31;;;;;;;26.95;12.43;;;7.40;99.90;;;;;;5014772;28;20096;-68
2022/03/16 05:40:56;;;;;;;27.67;13.10;;;7.50;99.90;;;;;;5012287;28;20025;-64
2022/03/16 05:43:22;;;;;;;27.52;12.70;;;7.50;99.90;;;;;;5022310;28;20082;-65
2022/03/16 05:45:51;;;;;;;28.80;13.55;;;7.50;99.90;;;;;;5013603;28;20030;-66
2022/03/16 05:48:17;;;;;;;26.92;13.27;;;7.50;99.90;;;;;;5013380;28;20044;-65
2022/03/16 05:50:45;;;;;;;25.35;12.85;;;7.50;99.90;;;;;;5014517;28;20137;-65
2022/03/16 05:53:11;;;;;;;26.05;12.18;;;7.50;99.90;;;;;;5013136;28;20026;-65
2022/03/16 05:55:37;;;;;;;24.20;12.60;;;7.50;99.90;;;;;;5013711;28;20030;-65
2022/03/16 05:58:02;;;;;;;26.52;13.52;;;7.50;99.90;;;;;;5013350;28;20029;-63
2022/03/16 06:00:28;;;;;;;24.52;12.60;;;7.50;99.90;;;;;;5013240;28;20466;-64
2022/03/16 06:02:54;;;;;;;26.20;12.48;;;7.50;99.90;;;;;;5011966;28;20033;-65
2022/03/16 06:05:19;;;;;;;27.63;13.60;;;7.40;99.90;;;;;;5013139;28;20050;-65
2022/03/16 06:07:46;;;;;;;24.08;12.50;;;7.40;99.90;;;;;;5011677;28;20076;-61
2022/03/16 06:10:17;;;;;;;28.88;14.38;;;7.40;99.90;;;;;;5017865;28;20152;-64
2022/03/16 06:13:05;;;;;;;25.92;13.27;;;7.40;99.90;;;;;;5017460;28;20459;-65
2022/03/16 06:15:38;;;;;;;25.02;11.65;;;7.40;99.90;;;;;;5006565;28;20049;-62
2022/03/16 06:18:04;;;;;;;26.23;12.55;;;7.40;99.90;;;;;;5012300;28;20736;-62
2022/03/16 06:20:30;;;;;;;23.77;11.68;;;7.40;99.90;;;;;;5012735;28;20156;-62
2022/03/16 06:22:55;;;;;;;27.38;13.30;;;7.40;99.90;;;;;;5014003;28;20057;-62
2022/03/16 06:25:24;;;;;;;26.05;12.63;;;7.50;99.90;;;;;;5013432;28;20128;-62
2022/03/16 06:27:50;;;;;;;27.02;12.93;;;7.50;99.90;;;;;;5011471;28;20034;-63
2022/03/16 06:30:15;;;;;;;28.45;13.07;;;7.50;99.90;;;;;;5024036;28;20394;-62
2022/03/16 06:32:44;;;;;;;27.05;13.82;;;7.60;99.90;;;;;;5010246;28;20025;-63
2022/03/16 06:35:10;;;;;;;25.42;12.57;;;7.60;99.90;;;;;;5012401;28;20048;-64
2022/03/16 06:37:36;;;;;;;24.48;12.25;;;7.60;99.90;;;;;;5012773;28;20455;-63
2022/03/16 06:40:02;;;;;;;26.90;12.88;;;7.70;99.90;;;;;;5013423;28;20095;-63
2022/03/16 06:42:27;;;;;;;24.25;12.18;;;7.70;99.90;;;;;;5008863;28;20030;-63
2022/03/16 06:44:53;;;;;;;23.25;11.43;;;7.70;99.90;;;;;;5012933;28;20034;-63
2022/03/16 06:47:18;;;;;;;24.17;11.65;;;7.80;99.90;;;;;;5012790;28;20042;-63
2022/03/16 06:49:45;;;;;;;23.30;11.00;;;7.90;99.90;;;;;;5010777;28;20062;-63
2022/03/16 06:52:11;;;;;;;25.27;11.63;;;7.90;99.90;;;;;;5023552;28;20030;-63
2022/03/16 06:54:37;;;;;;;24.25;11.70;;;8.00;99.90;;;;;;5016109;28;20033;-63
2022/03/16 06:57:02;;;;;;;21.80;10.13;;;8.10;99.90;;;;;;5019439;28;20088;-63
2022/03/16 06:59:28;;;;;;;23.20;9.85;;;8.10;99.90;;;;;;5024710;28;20025;-62
2022/03/16 07:01:54;;;;;;;20.85;9.52;;;8.20;99.90;;;;;;5012755;28;20417;-63
2022/03/16 07:04:19;;;;;;;21.05;9.55;;;8.20;99.90;;;;;;5012782;28;20065;-63
2022/03/16 07:06:45;;;;;;;20.50;9.82;;;8.30;99.90;;;;;;5013179;28;20068;-63
2022/03/16 07:09:11;;;;;;;21.30;10.02;;;8.30;99.90;;;;;;5013210;28;20041;-62
2022/03/16 07:11:36;;;;;;;23.45;9.75;;;8.40;99.90;;;;;;5013508;28;20073;-66
2022/03/16 07:16:46;;;;;;;18.30;9.00;;;8.50;99.90;;;;;;5011310;28;20064;-63
2022/03/16 07:19:12;;;;;;;17.27;8.05;;;8.60;99.90;;;;;;5016684;28;20026;-62
2022/03/16 07:21:40;;;;;;;20.73;8.25;;;8.70;99.90;;;;;;5023243;28;20034;-62
2022/03/16 07:24:06;;;;;;;19.20;8.93;;;8.70;99.90;;;;;;5014602;28;20383;-62
2022/03/16 07:26:32;;;;;;;20.02;8.50;;;8.80;99.90;;;;;;5017053;28;20029;-62
2022/03/16 07:28:57;;;;;;;20.02;8.70;;;8.90;99.90;;;;;;5016810;28;20204;-62
2022/03/16 07:31:23;;;;;;;21.63;9.50;;;9.00;99.90;;;;;;5016933;28;20037;-62
2022/03/16 07:33:49;;;;;;;23.00;10.63;;;9.10;99.90;;;;;;5017130;28;20036;-62
2022/03/16 07:36:14;;;;;;;21.15;10.57;;;9.20;99.90;;;;;;5012057;28;20037;-62
2022/03/16 07:38:40;;;;;;;21.83;9.57;;;9.30;99.90;;;;;;5002900;28;20465;-63
2022/03/16 07:41:05;;;;;;;21.33;10.45;;;9.40;99.90;;;;;;5014412;28;20053;-62
2022/03/16 07:43:31;;;;;;;24.40;11.02;;;9.50;99.90;;;;;;5016758;28;20109;-63
2022/03/16 07:45:58;;;;;;;23.42;10.18;;;9.60;99.90;;;;;;5016650;28;20070;-62
2022/03/16 07:48:23;;;;;;;21.70;10.63;;;9.80;99.90;;;;;;5014309;28;20065;-62
2022/03/16 07:50:50;;;;;;;24.23;9.20;;;9.90;99.90;;;;;;5027785;28;20494;-62
2022/03/16 07:53:16;;;;;;;22.27;9.43;;;10.10;99.90;;;;;;5015163;28;20064;-62
2022/03/16 07:55:41;;;;;;;21.52;9.70;;;10.20;99.90;;;;;;5013131;28;20123;-62
2022/03/16 07:58:07;;;;;;;18.55;9.23;;;10.30;99.90;;;;;;5015312;28;20034;-63
2022/03/16 08:00:32;;;;;;;22.33;10.43;;;10.50;99.90;;;;;;5011727;28;20034;-63
2022/03/16 08:03:01;;;;;;;20.38;9.27;;;10.70;99.90;;;;;;5011856;28;20160;-63
2022/03/16 08:05:27;;;;;;;20.05;9.45;;;10.90;99.90;;;;;;5012514;28;20054;-62
2022/03/16 08:07:53;;;;;;;19.80;9.40;;;11.00;99.90;;;;;;5014581;28;20041;-62
2022/03/16 08:10:19;;;;;;;18.52;8.95;;;11.30;99.90;;;;;;5013565;28;20026;-63
2022/03/16 08:12:46;;;;;;;21.52;9.27;;;11.60;99.90;;;;;;5015370;28;20108;-63
2022/03/16 08:15:11;;;;;;;17.58;9.02;;;12.00;99.90;;;;;;5014758;28;20390;-62
2022/03/16 08:17:37;;;;;;;22.92;9.27;;;12.30;99.90;;;;;;5010059;28;20038;-63
2022/03/16 08:20:03;;;;;;;18.58;9.07;;;12.70;99.90;;;;;;5014498;28;20026;-63
2022/03/16 08:22:31;;;;;;;18.15;8.88;;;12.90;99.90;;;;;;5015912;28;20046;-63
2022/03/16 08:24:58;;;;;;;19.52;9.45;;;13.10;99.90;;;;;;5014812;28;20053;-63
2022/03/16 08:27:24;;;;;;;19.05;9.48;;;13.40;99.90;;;;;;5015328;28;20061;-63
2022/03/16 08:29:51;;;;;;;17.58;8.77;;;13.60;99.90;;;;;;5013533;28;20061;-63
2022/03/16 08:32:17;;;;;;;17.15;8.43;;;13.70;99.90;;;;;;5012870;28;20080;-63
2022/03/16 08:34:43;;;;;;;15.65;8.15;;;13.80;99.90;;;;;;5014526;28;20030;-63
2022/03/16 08:37:09;;;;;;;19.17;9.02;;;14.10;99.90;;;;;;5014634;28;20105;-63
2022/03/16 08:39:34;;;;;;;23.00;10.20;;;14.40;99.90;;;;;;5014919;28;20109;-63
2022/03/16 08:42:00;;;;;;;16.05;8.13;;;14.60;99.90;;;;;;5014622;28;20022;-62
2022/03/16 08:44:25;;;;;;;16.25;8.18;;;14.90;99.90;;;;;;5015124;28;20101;-62
2022/03/16 08:46:52;;;;;;;18.85;8.48;;;15.30;99.40;;;;;;5015382;28;20030;-62
2022/03/16 08:49:18;;;;;;;19.02;9.55;;;15.30;98.90;;;;;;5015539;28;20483;-62
2022/03/16 08:51:43;;;;;;;23.92;11.88;;;15.20;98.80;;;;;;5015597;28;20033;-62
2022/03/16 08:54:09;;;;;;;18.77;8.88;;;15.10;99.20;;;;;;5016039;28;20076;-62
2022/03/16 08:56:35;;;;;;;17.30;8.75;;;15.00;98.90;;;;;;5014522;28;20041;-62
2022/03/16 08:59:01;;;;;;;18.02;9.15;;;14.80;99.00;;;;;;5015081;28;20022;-62
2022/03/16 09:01:27;;;;;;;20.15;10.63;;;14.90;99.20;;;;;;5013287;28;20389;-62
2022/03/16 09:03:53;;;;;;;19.42;9.00;;;15.10;99.10;;;;;;5015976;28;20112;-63
2022/03/16 09:06:19;;;;;;;14.13;7.35;;;15.40;98.90;;;;;;5017618;28;20107;-62
2022/03/16 09:08:45;;;;;;;15.68;7.95;;;16.00;97.90;;;;;;5015055;28;20501;-63
2022/03/16 09:11:11;;;;;;;16.23;8.32;;;16.60;97.10;;;;;;5015690;28;20088;-62
2022/03/16 09:13:37;;;;;;;16.52;7.35;;;17.30;96.20;;;;;;5015656;28;20080;-62
2022/03/16 09:16:02;;;;;;;20.02;9.23;;;17.90;94.90;;;;;;5015753;28;20446;-62
2022/03/16 09:18:29;;;;;;;16.33;7.65;;;18.50;94.40;;;;;;5015302;28;20113;-63
2022/03/16 09:20:54;;;;;;;14.18;7.55;;;19.20;93.40;;;;;;5007990;28;20030;-63
2022/03/16 09:23:20;;;;;;;14.68;7.85;;;19.70;92.40;;;;;;5012645;28;20092;-63
2022/03/16 09:25:45;;;;;;;15.77;7.15;;;19.80;91.30;;;;;;5014888;28;20099;-63
2022/03/16 09:28:12;;;;;;;15.38;7.53;;;19.90;90.90;;;;;;5014208;28;20049;-63
2022/03/16 09:30:37;;;;;;;15.43;8.15;;;19.80;90.70;;;;;;5015312;28;20056;-63
2022/03/16 09:33:04;;;;;;;14.05;7.35;;;19.90;90.50;;;;;;5014751;28;20426;-62
2022/03/16 09:35:31;;;;;;;14.43;7.05;;;20.20;89.70;;;;;;5014802;28;20105;-62
2022/03/16 09:37:59;;;;;;;13.35;6.25;;;20.10;89.30;;;;;;5013010;28;20105;-63
2022/03/16 09:40:26;;;;;;;13.88;7.35;;;19.90;89.00;;;;;;5012748;28;20068;-62
2022/03/16 09:42:54;;;;;;;13.90;7.38;;;19.80;89.20;;;;;;5011148;28;20022;-64
2022/03/16 09:45:21;;;;;;;14.77;7.88;;;20.00;88.50;;;;;;5014059;28;20057;-63
2022/03/16 09:47:48;;;;;;;20.55;10.07;;;20.20;88.50;;;;;;5014631;28;20505;-63
2022/03/16 09:50:14;;;;;;;18.25;8.93;;;20.40;87.80;;;;;;5014897;28;20033;-63
2022/03/16 09:52:40;;;;;;;15.52;8.60;;;20.80;87.40;;;;;;5012306;28;20023;-64
2022/03/16 09:55:06;;;;;;;16.65;7.63;;;21.10;86.40;;;;;;5014495;28;20040;-62
2022/03/16 09:57:33;;;;;;;11.90;6.82;;;21.30;85.20;;;;;;5011532;28;20022;-65
2022/03/16 10:00:00;;;;;;;12.13;6.82;;;21.50;84.00;;;;;;5014101;28;20080;-63
2022/03/16 10:02:27;;;;;;;14.80;7.53;;;21.60;83.30;;;;;;5013411;28;20018;-62
2022/03/16 10:04:54;;;;;;;20.17;11.23;;;21.50;83.40;;;;;;5020563;28;20470;-62
2022/03/16 10:07:29;;;;;;;11.57;6.78;;;21.60;82.90;;;;;;5028377;28;20030;-63
2022/03/16 10:15:24;;;;;;;12.50;6.72;;;22.40;80.60;;;;;;5021631;28;20103;-62
2022/03/16 10:18:00;;;;;;;10.57;6.05;;;22.50;80.00;;;;;;5022521;28;20521;-63
2022/03/16 10:20:33;;;;;;;13.05;7.03;;;22.50;79.20;;;;;;5023614;28;20478;-63
2022/03/16 10:23:05;;;;;;;14.02;6.47;;;22.60;79.10;;;;;;5030931;28;20029;-62
2022/03/16 10:25:36;;;;;;;14.20;6.70;;;22.80;77.90;;;;;;5031966;28;20041;-62
2022/03/16 10:28:24;;;;;;;11.77;6.43;;;22.90;77.10;;;;;;5030874;28;20382;-62
2022/03/16 10:30:57;;;;;;;12.75;7.75;;;22.80;76.50;;;;;;5031883;28;20489;-61
2022/03/16 10:33:33;;;;;;;14.30;7.65;;;22.50;76.90;;;;;;5013752;28;20478;-62
2022/03/16 10:36:05;;;;;;;11.93;6.22;;;22.50;77.30;;;;;;5023859;28;20060;-62
2022/03/16 10:38:36;;;;;;;;;;;22.80;76.50;;;;;;5032062;28;20363;-62
2022/03/16 10:47:09;;;;;;;17.08;8.00;;;22.90;74.90;;;;;;5015672;28;20584;-62
2022/03/16 10:49:35;;;;;;;11.27;5.82;;;22.80;74.80;;;;;;5025578;28;20121;-62
2022/03/16 10:52:05;;;;;;;10.98;6.45;;;22.40;75.00;;;;;;5021477;28;20517;-62
2022/03/16 10:54:35;;;;;;;12.13;6.35;;;21.70;75.80;;;;;;5018053;28;20076;-62
2022/03/16 10:57:04;;;;;;;13.75;7.35;;;21.20;76.60;;;;;;5022155;28;20038;-66
2022/03/16 10:59:33;;;;;;;13.05;6.55;;;20.90;77.90;;;;;;5027884;28;20120;-65
2022/03/16 11:02:15;;;;;;;13.38;7.38;;;20.80;78.20;;;;;;5030301;28;20017;-65
2022/03/16 11:04:50;;;;;;;16.88;7.90;;;20.80;79.50;;;;;;5024341;28;20033;-62
2022/03/16 11:07:18;;;;;;;12.88;6.85;;;20.90;78.80;;;;;;5025440;28;20045;-64
2022/03/16 11:09:44;;;;;;;10.90;6.57;;;20.90;78.60;;;;;;5017335;28;20046;-62
2022/03/16 11:14:54;;;;;;;13.00;7.22;;;21.10;78.50;;;;;;5000280;28;20053;-66
2022/03/16 11:17:22;;;;;;;14.07;7.25;;;21.40;77.70;;;;;;4993010;28;20463;-65
2022/03/16 11:19:51;;;;;;;13.05;6.85;;;21.90;77.50;;;;;;4992949;28;20038;-65
2022/03/16 11:22:34;;;;;;;11.10;6.13;;;22.50;76.50;;;;;;5008283;28;20081;-66
2022/03/16 11:25:05;;;;;;;13.25;7.53;;;22.70;75.50;;;;;;4993455;28;20069;-63
2022/03/16 11:27:41;;;;;;;12.52;6.68;;;22.70;75.50;;;;;;4993090;28;20049;-63
2022/03/16 11:30:26;;;;;;;13.77;7.05;;;22.60;75.00;;;;;;4993459;28;20022;-63
2022/03/16 11:33:00;;;;;;;14.07;7.30;;;22.10;75.60;;;;;;4993230;28;20420;-63
2022/03/16 11:35:34;;;;;;;13.10;7.07;;;21.90;76.50;;;;;;4993269;28;20034;-63
2022/03/16 11:38:09;;;;;;;11.63;7.45;;;21.70;77.00;;;;;;4992876;28;20015;-63
2022/03/16 11:40:38;;;;;;;13.02;7.57;;;21.40;77.30;;;;;;4993178;28;20062;-63
2022/03/16 11:43:04;;;;;;;15.90;7.85;;;21.00;77.90;;;;;;4992959;28;20383;-63
2022/03/16 11:45:34;;;;;;;14.48;7.30;;;20.60;78.80;;;;;;4993196;28;20026;-63
2022/03/16 11:48:20;;;;;;;15.52;7.22;;;20.30;78.90;;;;;;4993149;28;20030;-62
2022/03/16 11:51:05;;;;;;;14.68;7.50;;;20.20;79.20;;;;;;4992586;28;20390;-62
2022/03/16 11:56:23;;;;;;;15.38;7.68;;;19.80;80.20;;;;;;4993239;28;20033;-64
2022/03/16 11:58:53;;;;;;;15.75;8.32;;;19.70;80.40;;;;;;4993073;28;20157;-63
2022/03/16 12:01:26;;;;;;;16.10;8.05;;;19.40;81.20;;;;;;4992576;28;20031;-62
2022/03/16 12:04:13;;;;;;;13.60;7.22;;;19.20;81.50;;;;;;4993285;28;20101;-62
2022/03/16 12:07:02;;;;;;;15.95;7.53;;;19.10;82.20;;;;;;4997164;28;20031;-62
2022/03/16 12:09:47;;;;;;;13.95;7.35;;;18.80;83.00;;;;;;4996779;28;20034;-62
2022/03/16 12:15:12;;;;;;;16.45;8.35;;;19.10;83.00;;;;;;5016562;28;20088;-62
2022/03/16 12:18:01;;;;;;;15.73;8.25;;;19.10;83.00;;;;;;5013059;28;20135;-62
2022/03/16 12:20:36;;;;;;;15.60;8.23;;;19.10;83.00;;;;;;5015145;28;20030;-63
2022/03/16 12:23:10;;;;;;;18.25;7.97;;;19.00;83.60;;;;;;5010545;28;20025;-62
2022/03/16 12:25:42;;;;;;;16.08;8.00;;;18.90;83.90;;;;;;5015189;28;20041;-62
2022/03/16 12:31:13;;;;;;;17.60;8.25;;;18.80;84.40;;;;;;5013628;28;20083;-62
2022/03/16 12:33:45;;;;;;;16.95;8.68;;;18.60;84.70;;;;;;5035695;28;20034;-62
2022/03/16 12:36:14;;;;;;;15.95;8.57;;;18.50;85.30;;;;;;5035737;28;20469;-62
2022/03/16 12:38:48;;;;;;;17.02;8.80;;;18.50;85.70;;;;;;5035696;28;20029;-62
2022/03/16 12:44:03;;;;;;;16.45;8.73;;;18.40;85.80;;;;;;5004831;28;20493;-63
2022/03/16 12:46:37;;;;;;;19.23;9.48;;;18.30;86.50;;;;;;5021779;28;20030;-62
2022/03/16 12:49:02;;;;;;;21.38;8.90;;;18.50;86.90;;;;;;5005332;28;20121;-63
2022/03/16 12:51:43;;;;;;;17.42;9.23;;;18.50;86.60;;;;;;5014250;28;20517;-62
2022/03/16 12:54:10;;;;;;;17.00;8.65;;;18.50;86.70;;;;;;5014116;28;20113;-62
2022/03/16 12:56:43;;;;;;;17.90;9.07;;;18.60;86.70;;;;;;5013676;28;20478;-63
2022/03/16 12:59:10;;;;;;;13.75;7.40;;;18.60;86.80;;;;;;5014854;28;20030;-63
2022/03/16 13:01:37;;;;;;;16.65;9.15;;;18.70;86.70;;;;;;5014847;28;20026;-63
2022/03/16 13:04:04;;;;;;;19.80;8.95;;;18.60;86.90;;;;;;5014476;28;20109;-63
2022/03/16 13:06:33;;;;;;;16.17;8.73;;;18.40;87.60;;;;;;5010149;28;20077;-62
2022/03/16 13:09:04;;;;;;;15.90;8.15;;;18.20;88.30;;;;;;5012495;28;20056;-63